sensor_id;sensor_type;location;lat;lon;timestamp;P1;durP1;ratioP1;P2;durP2;ratioP2
5010;SDS011;2524;54.364;10.072;2023-02-28T00:01:09;2.90;;;2.80;;
5010;SDS011;2524;54.364;10.072;2023-02-28T00:03:34;2.70;;;2.60;;
5010;SDS011;2524;54.364;10.072;2023-02-28T00:06:01;3.63;;;3.33;;
5010;SDS011;2524;54.364;10.072;2023-02-28T00:08:30;2.87;;;2.77;;
5010;SDS011;2524;54.364;10.072;2023-02-28T00:10:59;2.23;;;2.13;;
5010;SDS011;2524;54.364;10.072;2023-02-28T00:13:26;2.57;;;2.47;;
5010;SDS011;2524;54.364;10.072;2023-02-28T00:16:02;2.20;;;2.10;;
5010;SDS011;2524;54.364;10.072;2023-02-28T00:18:29;2.27;;;2.17;;
5010;SDS011;2524;54.364;10.072;2023-02-28T00:20:55;1.50;;;1.50;;
5010;SDS011;2524;54.364;10.072;2023-02-28T00:23:21;1.70;;;1.60;;
5010;SDS011;2524;54.364;10.072;2023-02-28T00:25:46;2.20;;;2.20;;
5010;SDS011;2524;54.364;10.072;2023-02-28T00:28:12;2.17;;;2.17;;
5010;SDS011;2524;54.364;10.072;2023-02-28T00:30:38;2.60;;;2.43;;
5010;SDS011;2524;54.364;10.072;2023-02-28T00:33:03;2.90;;;2.80;;
5010;SDS011;2524;54.364;10.072;2023-02-28T00:35:29;3.37;;;3.17;;
5010;SDS011;2524;54.364;10.072;2023-02-28T00:37:54;3.13;;;2.93;;
5010;SDS011;2524;54.364;10.072;2023-02-28T00:40:20;3.07;;;2.87;;
5010;SDS011;2524;54.364;10.072;2023-02-28T00:42:46;2.80;;;2.70;;
5010;SDS011;2524;54.364;10.072;2023-02-28T00:45:11;2.07;;;2.07;;
5010;SDS011;2524;54.364;10.072;2023-02-28T00:47:37;2.53;;;2.40;;
5010;SDS011;2524;54.364;10.072;2023-02-28T00:50:03;2.60;;;2.50;;
5010;SDS011;2524;54.364;10.072;2023-02-28T00:52:29;2.00;;;1.90;;
5010;SDS011;2524;54.364;10.072;2023-02-28T00:54:55;2.57;;;2.47;;
5010;SDS011;2524;54.364;10.072;2023-02-28T00:57:20;2.27;;;2.17;;
5010;SDS011;2524;54.364;10.072;2023-02-28T00:59:46;2.30;;;2.20;;
5010;SDS011;2524;54.364;10.072;2023-02-28T01:02:12;2.90;;;2.70;;
5010;SDS011;2524;54.364;10.072;2023-02-28T01:04:37;1.67;;;1.67;;
5010;SDS011;2524;54.364;10.072;2023-02-28T01:07:03;1.97;;;1.97;;
5010;SDS011;2524;54.364;10.072;2023-02-28T01:09:28;2.63;;;2.43;;
5010;SDS011;2524;54.364;10.072;2023-02-28T01:11:54;2.00;;;2.00;;
5010;SDS011;2524;54.364;10.072;2023-02-28T01:14:19;1.80;;;1.70;;
5010;SDS011;2524;54.364;10.072;2023-02-28T01:16:45;2.07;;;1.97;;
5010;SDS011;2524;54.364;10.072;2023-02-28T01:19:11;2.47;;;2.37;;
5010;SDS011;2524;54.364;10.072;2023-02-28T01:21:37;3.23;;;2.03;;
5010;SDS011;2524;54.364;10.072;2023-02-28T01:24:03;2.90;;;2.70;;
5010;SDS011;2524;54.364;10.072;2023-02-28T01:26:29;1.77;;;1.77;;
5010;SDS011;2524;54.364;10.072;2023-02-28T01:28:55;2.67;;;2.57;;
5010;SDS011;2524;54.364;10.072;2023-02-28T01:31:22;2.50;;;2.40;;
5010;SDS011;2524;54.364;10.072;2023-02-28T01:33:48;3.40;;;3.10;;
5010;SDS011;2524;54.364;10.072;2023-02-28T01:36:18;2.43;;;2.33;;
5010;SDS011;2524;54.364;10.072;2023-02-28T01:38:46;2.33;;;2.33;;
5010;SDS011;2524;54.364;10.072;2023-02-28T01:41:15;2.27;;;2.17;;
5010;SDS011;2524;54.364;10.072;2023-02-28T01:44:04;3.47;;;3.27;;
5010;SDS011;2524;54.364;10.072;2023-02-28T01:46:31;3.97;;;3.50;;
5010;SDS011;2524;54.364;10.072;2023-02-28T01:49:02;3.83;;;3.53;;
5010;SDS011;2524;54.364;10.072;2023-02-28T01:51:37;2.87;;;2.77;;
5010;SDS011;2524;54.364;10.072;2023-02-28T01:54:12;2.77;;;2.60;;
5010;SDS011;2524;54.364;10.072;2023-02-28T01:56:42;2.60;;;2.50;;
5010;SDS011;2524;54.364;10.072;2023-02-28T01:59:13;2.80;;;2.60;;
5010;SDS011;2524;54.364;10.072;2023-02-28T02:01:46;2.30;;;2.20;;
5010;SDS011;2524;54.364;10.072;2023-02-28T02:04:12;2.33;;;2.20;;
5010;SDS011;2524;54.364;10.072;2023-02-28T02:06:39;2.10;;;2.00;;
5010;SDS011;2524;54.364;10.072;2023-02-28T02:09:08;2.27;;;2.17;;
5010;SDS011;2524;54.364;10.072;2023-02-28T02:11:33;2.77;;;2.57;;
5010;SDS011;2524;54.364;10.072;2023-02-28T02:17:04;2.00;;;1.90;;
5010;SDS011;2524;54.364;10.072;2023-02-28T02:25:45;2.40;;;2.30;;
5010;SDS011;2524;54.364;10.072;2023-02-28T02:36:27;1.80;;;1.70;;
5010;SDS011;2524;54.364;10.072;2023-02-28T02:38:56;2.00;;;2.00;;
5010;SDS011;2524;54.364;10.072;2023-02-28T02:41:45;2.10;;;2.07;;
5010;SDS011;2524;54.364;10.072;2023-02-28T02:44:21;1.90;;;1.80;;
5010;SDS011;2524;54.364;10.072;2023-02-28T02:46:51;2.00;;;1.90;;
5010;SDS011;2524;54.364;10.072;2023-02-28T02:49:24;2.47;;;2.27;;
5010;SDS011;2524;54.364;10.072;2023-02-28T02:51:53;1.50;;;1.50;;
5010;SDS011;2524;54.364;10.072;2023-02-28T02:54:22;1.50;;;1.50;;
5010;SDS011;2524;54.364;10.072;2023-02-28T02:56:53;2.27;;;2.13;;
5010;SDS011;2524;54.364;10.072;2023-02-28T02:59:26;2.60;;;2.50;;
5010;SDS011;2524;54.364;10.072;2023-02-28T03:01:57;2.20;;;2.20;;
5010;SDS011;2524;54.364;10.072;2023-02-28T03:04:27;2.80;;;2.70;;
5010;SDS011;2524;54.364;10.072;2023-02-28T03:06:56;1.90;;;1.80;;
5010;SDS011;2524;54.364;10.072;2023-02-28T03:09:22;2.20;;;2.10;;
5010;SDS011;2524;54.364;10.072;2023-02-28T03:11:48;2.77;;;2.57;;
5010;SDS011;2524;54.364;10.072;2023-02-28T03:14:26;2.47;;;2.37;;
5010;SDS011;2524;54.364;10.072;2023-02-28T03:20:59;1.70;;;1.60;;
5010;SDS011;2524;54.364;10.072;2023-02-28T03:22:52;1.83;;;1.83;;
5010;SDS011;2524;54.364;10.072;2023-02-28T03:25:43;2.73;;;2.63;;
5010;SDS011;2524;54.364;10.072;2023-02-28T03:31:20;2.27;;;2.17;;
5010;SDS011;2524;54.364;10.072;2023-02-28T03:34:01;2.13;;;2.03;;
5010;SDS011;2524;54.364;10.072;2023-02-28T03:36:53;2.37;;;2.27;;
5010;SDS011;2524;54.364;10.072;2023-02-28T03:39:24;2.67;;;2.57;;
5010;SDS011;2524;54.364;10.072;2023-02-28T03:41:57;2.63;;;2.53;;
5010;SDS011;2524;54.364;10.072;2023-02-28T03:44:29;2.33;;;2.23;;
5010;SDS011;2524;54.364;10.072;2023-02-28T03:47:00;2.10;;;2.10;;
5010;SDS011;2524;54.364;10.072;2023-02-28T03:49:34;2.20;;;2.10;;
5010;SDS011;2524;54.364;10.072;2023-02-28T03:52:22;2.53;;;2.53;;
5010;SDS011;2524;54.364;10.072;2023-02-28T03:54:51;2.90;;;2.80;;
5010;SDS011;2524;54.364;10.072;2023-02-28T03:59:59;2.53;;;2.40;;
5010;SDS011;2524;54.364;10.072;2023-02-28T04:02:30;2.37;;;2.27;;
5010;SDS011;2524;54.364;10.072;2023-02-28T04:04:56;2.23;;;2.13;;
5010;SDS011;2524;54.364;10.072;2023-02-28T04:07:22;3.30;;;3.10;;
5010;SDS011;2524;54.364;10.072;2023-02-28T04:09:48;2.87;;;2.77;;
5010;SDS011;2524;54.364;10.072;2023-02-28T04:12:13;3.20;;;2.93;;
5010;SDS011;2524;54.364;10.072;2023-02-28T04:14:40;2.53;;;2.43;;
5010;SDS011;2524;54.364;10.072;2023-02-28T04:17:06;2.30;;;2.20;;
5010;SDS011;2524;54.364;10.072;2023-02-28T04:19:32;2.40;;;2.30;;
5010;SDS011;2524;54.364;10.072;2023-02-28T04:21:57;2.67;;;2.57;;
5010;SDS011;2524;54.364;10.072;2023-02-28T04:24:26;3.73;;;3.43;;
5010;SDS011;2524;54.364;10.072;2023-02-28T04:26:53;2.40;;;2.30;;
5010;SDS011;2524;54.364;10.072;2023-02-28T04:29:21;2.43;;;2.33;;
5010;SDS011;2524;54.364;10.072;2023-02-28T04:31:55;3.10;;;2.90;;
5010;SDS011;2524;54.364;10.072;2023-02-28T04:34:22;2.60;;;2.50;;
5010;SDS011;2524;54.364;10.072;2023-02-28T04:36:49;2.10;;;2.10;;
5010;SDS011;2524;54.364;10.072;2023-02-28T04:39:16;2.30;;;2.20;;
5010;SDS011;2524;54.364;10.072;2023-02-28T04:41:43;2.50;;;2.40;;
5010;SDS011;2524;54.364;10.072;2023-02-28T04:44:09;3.00;;;2.90;;
5010;SDS011;2524;54.364;10.072;2023-02-28T04:46:35;2.90;;;2.73;;
5010;SDS011;2524;54.364;10.072;2023-02-28T04:49:00;3.50;;;3.27;;
5010;SDS011;2524;54.364;10.072;2023-02-28T04:51:26;3.33;;;3.20;;
5010;SDS011;2524;54.364;10.072;2023-02-28T04:53:52;2.80;;;2.70;;
5010;SDS011;2524;54.364;10.072;2023-02-28T04:56:18;2.80;;;2.60;;
5010;SDS011;2524;54.364;10.072;2023-02-28T04:58:44;2.73;;;2.63;;
5010;SDS011;2524;54.364;10.072;2023-02-28T05:01:20;2.60;;;2.50;;
5010;SDS011;2524;54.364;10.072;2023-02-28T05:03:58;3.07;;;2.87;;
5010;SDS011;2524;54.364;10.072;2023-02-28T05:06:26;3.43;;;3.13;;
5010;SDS011;2524;54.364;10.072;2023-02-28T05:08:53;3.20;;;2.90;;
5010;SDS011;2524;54.364;10.072;2023-02-28T05:13:45;2.83;;;2.67;;
5010;SDS011;2524;54.364;10.072;2023-02-28T05:16:12;2.90;;;2.80;;
5010;SDS011;2524;54.364;10.072;2023-02-28T05:18:38;3.63;;;3.30;;
5010;SDS011;2524;54.364;10.072;2023-02-28T05:21:04;2.50;;;2.40;;
5010;SDS011;2524;54.364;10.072;2023-02-28T05:23:30;3.03;;;2.80;;
5010;SDS011;2524;54.364;10.072;2023-02-28T05:25:56;2.70;;;2.60;;
5010;SDS011;2524;54.364;10.072;2023-02-28T05:28:22;3.10;;;2.90;;
5010;SDS011;2524;54.364;10.072;2023-02-28T05:30:47;2.77;;;2.67;;
5010;SDS011;2524;54.364;10.072;2023-02-28T05:33:13;2.60;;;2.50;;
5010;SDS011;2524;54.364;10.072;2023-02-28T05:35:39;3.97;;;3.70;;
5010;SDS011;2524;54.364;10.072;2023-02-28T05:38:06;4.90;;;4.43;;
5010;SDS011;2524;54.364;10.072;2023-02-28T05:40:32;4.20;;;3.80;;
5010;SDS011;2524;54.364;10.072;2023-02-28T05:42:58;3.93;;;3.53;;
5010;SDS011;2524;54.364;10.072;2023-02-28T05:45:23;4.37;;;3.97;;
5010;SDS011;2524;54.364;10.072;2023-02-28T05:47:52;3.17;;;2.97;;
5010;SDS011;2524;54.364;10.072;2023-02-28T05:50:18;3.23;;;3.03;;
5010;SDS011;2524;54.364;10.072;2023-02-28T05:52:44;3.53;;;3.23;;
5010;SDS011;2524;54.364;10.072;2023-02-28T05:55:13;2.70;;;2.60;;
5010;SDS011;2524;54.364;10.072;2023-02-28T05:57:39;2.73;;;2.63;;
5010;SDS011;2524;54.364;10.072;2023-02-28T06:00:04;3.00;;;2.90;;
5010;SDS011;2524;54.364;10.072;2023-02-28T06:02:31;2.90;;;2.80;;
5010;SDS011;2524;54.364;10.072;2023-02-28T06:04:56;3.00;;;2.80;;
5010;SDS011;2524;54.364;10.072;2023-02-28T06:07:22;3.17;;;2.97;;
5010;SDS011;2524;54.364;10.072;2023-02-28T06:09:47;2.90;;;2.80;;
5010;SDS011;2524;54.364;10.072;2023-02-28T06:12:13;2.87;;;2.77;;
5010;SDS011;2524;54.364;10.072;2023-02-28T06:14:40;3.40;;;3.20;;
5010;SDS011;2524;54.364;10.072;2023-02-28T06:17:05;3.20;;;3.10;;
5010;SDS011;2524;54.364;10.072;2023-02-28T06:19:31;3.70;;;3.50;;
5010;SDS011;2524;54.364;10.072;2023-02-28T06:21:57;3.10;;;2.90;;
5010;SDS011;2524;54.364;10.072;2023-02-28T06:24:23;3.50;;;3.30;;
5010;SDS011;2524;54.364;10.072;2023-02-28T06:26:52;3.23;;;2.93;;
5010;SDS011;2524;54.364;10.072;2023-02-28T06:29:18;3.17;;;2.97;;
5010;SDS011;2524;54.364;10.072;2023-02-28T06:31:44;2.80;;;2.70;;
5010;SDS011;2524;54.364;10.072;2023-02-28T06:34:11;3.00;;;2.80;;
5010;SDS011;2524;54.364;10.072;2023-02-28T06:36:38;2.73;;;2.63;;
5010;SDS011;2524;54.364;10.072;2023-02-28T06:39:04;3.00;;;2.90;;
5010;SDS011;2524;54.364;10.072;2023-02-28T06:41:30;2.90;;;2.70;;
5010;SDS011;2524;54.364;10.072;2023-02-28T06:43:56;2.57;;;2.50;;
5010;SDS011;2524;54.364;10.072;2023-02-28T06:46:22;2.90;;;2.80;;
5010;SDS011;2524;54.364;10.072;2023-02-28T06:48:47;3.70;;;3.37;;
5010;SDS011;2524;54.364;10.072;2023-02-28T06:51:17;3.70;;;3.57;;
5010;SDS011;2524;54.364;10.072;2023-02-28T06:53:45;3.30;;;2.93;;
5010;SDS011;2524;54.364;10.072;2023-02-28T06:56:12;3.87;;;3.67;;
5010;SDS011;2524;54.364;10.072;2023-02-28T06:58:38;3.80;;;3.50;;
5010;SDS011;2524;54.364;10.072;2023-02-28T07:01:04;3.70;;;3.50;;
5010;SDS011;2524;54.364;10.072;2023-02-28T07:03:31;3.73;;;3.57;;
5010;SDS011;2524;54.364;10.072;2023-02-28T07:05:57;4.13;;;3.77;;
5010;SDS011;2524;54.364;10.072;2023-02-28T07:08:24;3.90;;;3.70;;
5010;SDS011;2524;54.364;10.072;2023-02-28T07:10:53;3.40;;;3.10;;
5010;SDS011;2524;54.364;10.072;2023-02-28T07:13:20;3.17;;;3.07;;
5010;SDS011;2524;54.364;10.072;2023-02-28T07:15:56;3.10;;;3.00;;
5010;SDS011;2524;54.364;10.072;2023-02-28T07:18:24;3.17;;;3.00;;
5010;SDS011;2524;54.364;10.072;2023-02-28T07:20:50;3.43;;;3.13;;
5010;SDS011;2524;54.364;10.072;2023-02-28T07:23:15;3.83;;;3.63;;
5010;SDS011;2524;54.364;10.072;2023-02-28T07:25:41;4.07;;;3.80;;
5010;SDS011;2524;54.364;10.072;2023-02-28T07:28:12;3.80;;;3.50;;
5010;SDS011;2524;54.364;10.072;2023-02-28T07:30:38;2.73;;;2.63;;
5010;SDS011;2524;54.364;10.072;2023-02-28T07:33:05;3.60;;;3.17;;
5010;SDS011;2524;54.364;10.072;2023-02-28T07:35:30;3.93;;;3.73;;
5010;SDS011;2524;54.364;10.072;2023-02-28T07:37:59;3.70;;;3.50;;
5010;SDS011;2524;54.364;10.072;2023-02-28T07:40:25;2.90;;;2.80;;
5010;SDS011;2524;54.364;10.072;2023-02-28T07:42:51;3.50;;;3.07;;
5010;SDS011;2524;54.364;10.072;2023-02-28T07:45:17;2.77;;;2.67;;
5010;SDS011;2524;54.364;10.072;2023-02-28T07:47:43;2.70;;;2.60;;
5010;SDS011;2524;54.364;10.072;2023-02-28T07:50:10;2.97;;;2.87;;
5010;SDS011;2524;54.364;10.072;2023-02-28T07:52:37;2.77;;;2.67;;
5010;SDS011;2524;54.364;10.072;2023-02-28T07:55:04;2.90;;;2.77;;
5010;SDS011;2524;54.364;10.072;2023-02-28T07:57:31;3.53;;;3.37;;
5010;SDS011;2524;54.364;10.072;2023-02-28T07:59:57;3.80;;;3.50;;
5010;SDS011;2524;54.364;10.072;2023-02-28T08:02:22;4.10;;;3.80;;
5010;SDS011;2524;54.364;10.072;2023-02-28T08:04:48;3.40;;;3.30;;
5010;SDS011;2524;54.364;10.072;2023-02-28T08:07:14;3.90;;;3.70;;
5010;SDS011;2524;54.364;10.072;2023-02-28T08:09:41;3.50;;;3.30;;
5010;SDS011;2524;54.364;10.072;2023-02-28T08:12:07;3.50;;;3.40;;
5010;SDS011;2524;54.364;10.072;2023-02-28T08:14:34;3.10;;;3.00;;
5010;SDS011;2524;54.364;10.072;2023-02-28T08:17:00;4.00;;;3.80;;
5010;SDS011;2524;54.364;10.072;2023-02-28T08:19:26;4.40;;;4.07;;
5010;SDS011;2524;54.364;10.072;2023-02-28T08:21:52;7.67;;;6.90;;
5010;SDS011;2524;54.364;10.072;2023-02-28T08:24:17;5.70;;;5.30;;
5010;SDS011;2524;54.364;10.072;2023-02-28T08:26:43;4.80;;;4.50;;
5010;SDS011;2524;54.364;10.072;2023-02-28T08:29:09;5.53;;;5.13;;
5010;SDS011;2524;54.364;10.072;2023-02-28T08:31:34;5.30;;;4.90;;
5010;SDS011;2524;54.364;10.072;2023-02-28T08:34:04;5.67;;;5.10;;
5010;SDS011;2524;54.364;10.072;2023-02-28T08:36:33;5.10;;;4.70;;
5010;SDS011;2524;54.364;10.072;2023-02-28T08:38:59;4.60;;;4.30;;
5010;SDS011;2524;54.364;10.072;2023-02-28T08:41:25;4.53;;;4.23;;
5010;SDS011;2524;54.364;10.072;2023-02-28T08:43:51;4.90;;;4.60;;
5010;SDS011;2524;54.364;10.072;2023-02-28T08:46:18;4.33;;;4.03;;
5010;SDS011;2524;54.364;10.072;2023-02-28T08:48:44;3.80;;;3.60;;
5010;SDS011;2524;54.364;10.072;2023-02-28T08:51:11;4.00;;;3.80;;
5010;SDS011;2524;54.364;10.072;2023-02-28T08:53:39;6.00;;;5.50;;
5010;SDS011;2524;54.364;10.072;2023-02-28T08:58:30;5.50;;;4.97;;
5010;SDS011;2524;54.364;10.072;2023-02-28T09:00:56;5.17;;;4.77;;
5010;SDS011;2524;54.364;10.072;2023-02-28T09:03:22;4.93;;;4.63;;
5010;SDS011;2524;54.364;10.072;2023-02-28T09:05:55;4.83;;;4.13;;
5010;SDS011;2524;54.364;10.072;2023-02-28T09:08:26;4.73;;;4.43;;
5010;SDS011;2524;54.364;10.072;2023-02-28T09:10:53;4.40;;;4.00;;
5010;SDS011;2524;54.364;10.072;2023-02-28T09:13:21;4.20;;;4.00;;
5010;SDS011;2524;54.364;10.072;2023-02-28T09:15:47;6.27;;;5.77;;
5010;SDS011;2524;54.364;10.072;2023-02-28T09:18:13;4.80;;;4.40;;
5010;SDS011;2524;54.364;10.072;2023-02-28T09:20:39;5.90;;;5.30;;
5010;SDS011;2524;54.364;10.072;2023-02-28T09:23:06;4.73;;;4.40;;
5010;SDS011;2524;54.364;10.072;2023-02-28T09:25:33;3.53;;;3.37;;
5010;SDS011;2524;54.364;10.072;2023-02-28T09:27:59;5.50;;;5.00;;
5010;SDS011;2524;54.364;10.072;2023-02-28T09:30:24;5.73;;;5.10;;
5010;SDS011;2524;54.364;10.072;2023-02-28T09:32:50;4.03;;;3.57;;
5010;SDS011;2524;54.364;10.072;2023-02-28T09:35:25;4.00;;;3.70;;
5010;SDS011;2524;54.364;10.072;2023-02-28T09:37:51;3.97;;;3.53;;
5010;SDS011;2524;54.364;10.072;2023-02-28T09:40:18;4.63;;;3.53;;
5010;SDS011;2524;54.364;10.072;2023-02-28T09:42:47;3.37;;;3.17;;
5010;SDS011;2524;54.364;10.072;2023-02-28T09:45:23;2.70;;;2.60;;
5010;SDS011;2524;54.364;10.072;2023-02-28T09:47:49;3.50;;;3.20;;
5010;SDS011;2524;54.364;10.072;2023-02-28T09:52:50;3.57;;;3.37;;
5010;SDS011;2524;54.364;10.072;2023-02-28T09:58:10;2.90;;;2.80;;
5010;SDS011;2524;54.364;10.072;2023-02-28T10:03:36;4.80;;;4.20;;
5010;SDS011;2524;54.364;10.072;2023-02-28T10:06:07;5.03;;;4.57;;
5010;SDS011;2524;54.364;10.072;2023-02-28T10:08:50;4.10;;;3.90;;
5010;SDS011;2524;54.364;10.072;2023-02-28T10:11:22;4.90;;;4.50;;
5010;SDS011;2524;54.364;10.072;2023-02-28T10:13:51;4.13;;;3.83;;
5010;SDS011;2524;54.364;10.072;2023-02-28T10:16:40;5.70;;;4.83;;
5010;SDS011;2524;54.364;10.072;2023-02-28T10:19:14;3.83;;;3.60;;
5010;SDS011;2524;54.364;10.072;2023-02-28T10:22:05;5.37;;;4.60;;
5010;SDS011;2524;54.364;10.072;2023-02-28T10:24:45;3.13;;;2.97;;
5010;SDS011;2524;54.364;10.072;2023-02-28T10:27:20;3.77;;;3.47;;
5010;SDS011;2524;54.364;10.072;2023-02-28T10:29:54;4.30;;;3.70;;
5010;SDS011;2524;54.364;10.072;2023-02-28T10:32:27;3.10;;;2.90;;
5010;SDS011;2524;54.364;10.072;2023-02-28T10:37:34;2.60;;;2.50;;
5010;SDS011;2524;54.364;10.072;2023-02-28T10:40:04;2.60;;;2.50;;
5010;SDS011;2524;54.364;10.072;2023-02-28T10:42:42;4.40;;;3.13;;
5010;SDS011;2524;54.364;10.072;2023-02-28T10:45:21;3.43;;;3.23;;
5010;SDS011;2524;54.364;10.072;2023-02-28T10:47:49;4.03;;;3.73;;
5010;SDS011;2524;54.364;10.072;2023-02-28T10:50:26;3.27;;;2.93;;
5010;SDS011;2524;54.364;10.072;2023-02-28T10:53:03;3.17;;;2.70;;
5010;SDS011;2524;54.364;10.072;2023-02-28T11:01:14;2.13;;;2.00;;
5010;SDS011;2524;54.364;10.072;2023-02-28T11:03:44;2.30;;;2.20;;
5010;SDS011;2524;54.364;10.072;2023-02-28T11:06:16;1.80;;;1.70;;
5010;SDS011;2524;54.364;10.072;2023-02-28T11:08:56;2.67;;;2.57;;
5010;SDS011;2524;54.364;10.072;2023-02-28T11:11:25;1.60;;;1.60;;
5010;SDS011;2524;54.364;10.072;2023-02-28T11:13:54;1.60;;;1.50;;
5010;SDS011;2524;54.364;10.072;2023-02-28T11:16:30;1.73;;;1.63;;
5010;SDS011;2524;54.364;10.072;2023-02-28T11:19:02;1.77;;;1.67;;
5010;SDS011;2524;54.364;10.072;2023-02-28T11:21:35;2.10;;;2.00;;
5010;SDS011;2524;54.364;10.072;2023-02-28T11:26:45;1.30;;;1.30;;
5010;SDS011;2524;54.364;10.072;2023-02-28T11:29:20;2.30;;;2.20;;
5010;SDS011;2524;54.364;10.072;2023-02-28T11:34:35;2.10;;;1.90;;
5010;SDS011;2524;54.364;10.072;2023-02-28T11:37:02;1.90;;;1.80;;
5010;SDS011;2524;54.364;10.072;2023-02-28T11:39:32;2.47;;;2.37;;
5010;SDS011;2524;54.364;10.072;2023-02-28T11:52:56;2.40;;;1.80;;
5010;SDS011;2524;54.364;10.072;2023-02-28T11:55:49;2.00;;;1.90;;
5010;SDS011;2524;54.364;10.072;2023-02-28T12:04:25;1.93;;;1.83;;
5010;SDS011;2524;54.364;10.072;2023-02-28T12:07:14;1.23;;;1.23;;
5010;SDS011;2524;54.364;10.072;2023-02-28T12:09:59;2.07;;;1.97;;
5010;SDS011;2524;54.364;10.072;2023-02-28T12:18:08;2.00;;;2.00;;
5010;SDS011;2524;54.364;10.072;2023-02-28T12:23:43;1.93;;;1.93;;
5010;SDS011;2524;54.364;10.072;2023-02-28T12:26:37;2.13;;;2.03;;
5010;SDS011;2524;54.364;10.072;2023-02-28T12:32:18;1.23;;;1.23;;
5010;SDS011;2524;54.364;10.072;2023-02-28T12:34:52;2.27;;;2.10;;
5010;SDS011;2524;54.364;10.072;2023-02-28T12:37:44;1.43;;;1.33;;
5010;SDS011;2524;54.364;10.072;2023-02-28T12:40:19;1.43;;;1.43;;
5010;SDS011;2524;54.364;10.072;2023-02-28T12:43:05;4.10;;;2.30;;
5010;SDS011;2524;54.364;10.072;2023-02-28T12:48:08;1.60;;;1.60;;
5010;SDS011;2524;54.364;10.072;2023-02-28T12:50:39;1.50;;;1.50;;
5010;SDS011;2524;54.364;10.072;2023-02-28T12:55:41;3.07;;;2.10;;
5010;SDS011;2524;54.364;10.072;2023-02-28T12:58:10;2.10;;;2.00;;
5010;SDS011;2524;54.364;10.072;2023-02-28T13:00:53;1.47;;;1.47;;
5010;SDS011;2524;54.364;10.072;2023-02-28T13:04:28;1.57;;;1.57;;
5010;SDS011;2524;54.364;10.072;2023-02-28T13:09:53;1.20;;;1.20;;
5010;SDS011;2524;54.364;10.072;2023-02-28T13:12:20;1.50;;;1.50;;
5010;SDS011;2524;54.364;10.072;2023-02-28T13:14:47;1.47;;;1.37;;
5010;SDS011;2524;54.364;10.072;2023-02-28T13:17:20;1.70;;;1.60;;
5010;SDS011;2524;54.364;10.072;2023-02-28T13:24:56;1.67;;;1.67;;
5010;SDS011;2524;54.364;10.072;2023-02-28T13:29:56;1.97;;;1.87;;
5010;SDS011;2524;54.364;10.072;2023-02-28T13:47:41;1.80;;;1.70;;
5010;SDS011;2524;54.364;10.072;2023-02-28T14:01:26;1.33;;;1.30;;
5010;SDS011;2524;54.364;10.072;2023-02-28T14:06:40;1.43;;;1.33;;
5010;SDS011;2524;54.364;10.072;2023-02-28T14:09:27;1.47;;;1.47;;
5010;SDS011;2524;54.364;10.072;2023-02-28T14:15:02;1.40;;;1.40;;
5010;SDS011;2524;54.364;10.072;2023-02-28T14:17:30;1.13;;;1.07;;
5010;SDS011;2524;54.364;10.072;2023-02-28T14:19:56;1.20;;;1.20;;
5010;SDS011;2524;54.364;10.072;2023-02-28T14:22:46;1.10;;;1.10;;
5010;SDS011;2524;54.364;10.072;2023-02-28T14:30:56;2.10;;;2.00;;
5010;SDS011;2524;54.364;10.072;2023-02-28T14:39:03;1.23;;;1.23;;
5010;SDS011;2524;54.364;10.072;2023-02-28T14:41:36;1.70;;;1.60;;
5010;SDS011;2524;54.364;10.072;2023-02-28T14:44:15;1.90;;;1.80;;
5010;SDS011;2524;54.364;10.072;2023-02-28T14:46:47;2.20;;;2.10;;
5010;SDS011;2524;54.364;10.072;2023-02-28T14:49:30;1.90;;;1.90;;
5010;SDS011;2524;54.364;10.072;2023-02-28T14:52:05;2.70;;;2.50;;
5010;SDS011;2524;54.364;10.072;2023-02-28T14:54:37;4.67;;;2.30;;
5010;SDS011;2524;54.364;10.072;2023-02-28T14:57:03;2.77;;;2.57;;
5010;SDS011;2524;54.364;10.072;2023-02-28T14:59:33;2.27;;;2.20;;
5010;SDS011;2524;54.364;10.072;2023-02-28T15:02:14;2.00;;;1.90;;
5010;SDS011;2524;54.364;10.072;2023-02-28T15:04:39;2.10;;;1.90;;
5010;SDS011;2524;54.364;10.072;2023-02-28T15:07:10;2.40;;;2.20;;
5010;SDS011;2524;54.364;10.072;2023-02-28T15:09:38;2.07;;;1.97;;
5010;SDS011;2524;54.364;10.072;2023-02-28T15:12:04;2.30;;;2.20;;
5010;SDS011;2524;54.364;10.072;2023-02-28T15:14:30;2.80;;;2.70;;
5010;SDS011;2524;54.364;10.072;2023-02-28T15:16:58;2.80;;;2.60;;
5010;SDS011;2524;54.364;10.072;2023-02-28T15:19:31;2.60;;;2.50;;
5010;SDS011;2524;54.364;10.072;2023-02-28T15:22:00;2.13;;;2.03;;
5010;SDS011;2524;54.364;10.072;2023-02-28T15:27:02;2.00;;;1.90;;
5010;SDS011;2524;54.364;10.072;2023-02-28T15:29:33;2.53;;;2.43;;
5010;SDS011;2524;54.364;10.072;2023-02-28T15:32:07;2.53;;;2.43;;
5010;SDS011;2524;54.364;10.072;2023-02-28T15:34:56;2.60;;;2.50;;
5010;SDS011;2524;54.364;10.072;2023-02-28T15:37:32;2.40;;;2.27;;
5010;SDS011;2524;54.364;10.072;2023-02-28T15:40:07;2.50;;;2.40;;
5010;SDS011;2524;54.364;10.072;2023-02-28T15:46:07;2.83;;;2.60;;
5010;SDS011;2524;54.364;10.072;2023-02-28T15:48:36;3.73;;;2.63;;
5010;SDS011;2524;54.364;10.072;2023-02-28T15:56:25;2.30;;;2.20;;
5010;SDS011;2524;54.364;10.072;2023-02-28T15:59:00;2.00;;;2.00;;
5010;SDS011;2524;54.364;10.072;2023-02-28T16:01:29;2.53;;;2.43;;
5010;SDS011;2524;54.364;10.072;2023-02-28T16:03:57;2.40;;;2.30;;
5010;SDS011;2524;54.364;10.072;2023-02-28T16:09:03;2.70;;;2.50;;
5010;SDS011;2524;54.364;10.072;2023-02-28T16:11:32;1.70;;;1.70;;
5010;SDS011;2524;54.364;10.072;2023-02-28T16:13:59;2.60;;;2.50;;
5010;SDS011;2524;54.364;10.072;2023-02-28T16:16:25;1.90;;;1.90;;
5010;SDS011;2524;54.364;10.072;2023-02-28T16:18:51;1.60;;;1.60;;
5010;SDS011;2524;54.364;10.072;2023-02-28T16:21:18;2.10;;;2.00;;
5010;SDS011;2524;54.364;10.072;2023-02-28T16:23:43;2.43;;;2.33;;
5010;SDS011;2524;54.364;10.072;2023-02-28T16:26:12;1.90;;;1.90;;
5010;SDS011;2524;54.364;10.072;2023-02-28T16:28:46;2.27;;;2.13;;
5010;SDS011;2524;54.364;10.072;2023-02-28T16:31:12;1.93;;;1.83;;
5010;SDS011;2524;54.364;10.072;2023-02-28T16:33:41;2.10;;;2.00;;
5010;SDS011;2524;54.364;10.072;2023-02-28T16:36:15;1.70;;;1.60;;
5010;SDS011;2524;54.364;10.072;2023-02-28T16:38:43;2.00;;;1.93;;
5010;SDS011;2524;54.364;10.072;2023-02-28T16:41:11;2.03;;;1.80;;
5010;SDS011;2524;54.364;10.072;2023-02-28T16:43:43;2.97;;;2.77;;
5010;SDS011;2524;54.364;10.072;2023-02-28T16:46:11;2.97;;;2.77;;
5010;SDS011;2524;54.364;10.072;2023-02-28T16:48:37;4.90;;;3.37;;
5010;SDS011;2524;54.364;10.072;2023-02-28T16:51:05;3.67;;;3.37;;
5010;SDS011;2524;54.364;10.072;2023-02-28T16:53:33;3.17;;;2.97;;
5010;SDS011;2524;54.364;10.072;2023-02-28T16:55:59;3.57;;;3.37;;
5010;SDS011;2524;54.364;10.072;2023-02-28T16:58:28;3.27;;;3.07;;
5010;SDS011;2524;54.364;10.072;2023-02-28T17:00:53;4.03;;;3.73;;
5010;SDS011;2524;54.364;10.072;2023-02-28T17:03:23;3.50;;;3.30;;
5010;SDS011;2524;54.364;10.072;2023-02-28T17:05:51;3.27;;;3.00;;
5010;SDS011;2524;54.364;10.072;2023-02-28T17:08:16;3.20;;;3.00;;
5010;SDS011;2524;54.364;10.072;2023-02-28T17:10:42;2.47;;;2.37;;
5010;SDS011;2524;54.364;10.072;2023-02-28T17:13:08;3.13;;;2.83;;
5010;SDS011;2524;54.364;10.072;2023-02-28T17:15:34;2.93;;;2.83;;
5010;SDS011;2524;54.364;10.072;2023-02-28T17:18:00;3.10;;;3.00;;
5010;SDS011;2524;54.364;10.072;2023-02-28T17:20:26;3.23;;;2.60;;
5010;SDS011;2524;54.364;10.072;2023-02-28T17:22:55;3.37;;;3.03;;
5010;SDS011;2524;54.364;10.072;2023-02-28T17:25:21;3.83;;;3.53;;
5010;SDS011;2524;54.364;10.072;2023-02-28T17:27:48;3.33;;;3.10;;
5010;SDS011;2524;54.364;10.072;2023-02-28T17:30:21;3.73;;;3.50;;
5010;SDS011;2524;54.364;10.072;2023-02-28T17:32:48;3.20;;;3.00;;
5010;SDS011;2524;54.364;10.072;2023-02-28T17:35:14;4.60;;;3.70;;
5010;SDS011;2524;54.364;10.072;2023-02-28T17:37:40;5.17;;;4.77;;
5010;SDS011;2524;54.364;10.072;2023-02-28T17:40:06;5.40;;;4.77;;
5010;SDS011;2524;54.364;10.072;2023-02-28T17:42:38;5.10;;;4.70;;
5010;SDS011;2524;54.364;10.072;2023-02-28T17:45:03;5.47;;;5.07;;
5010;SDS011;2524;54.364;10.072;2023-02-28T17:47:29;5.13;;;4.73;;
5010;SDS011;2524;54.364;10.072;2023-02-28T17:49:55;5.53;;;5.03;;